sensor_id;sensor_type;location;lat;lon;timestamp;pressure;altitude;pressure_sealevel;temperature;humidity
24230;BME280;12362;50.004;8.006;2023-06-24T00:01:17;101386.91;;;17.35;100.00
24230;BME280;12362;50.004;8.006;2023-06-24T00:03:42;101384.50;;;17.32;100.00
24230;BME280;12362;50.004;8.006;2023-06-24T00:06:12;101389.31;;;17.24;100.00
24230;BME280;12362;50.004;8.006;2023-06-24T00:08:47;101393.50;;;16.99;100.00
24230;BME280;12362;50.004;8.006;2023-06-24T00:11:13;101391.31;;;16.91;100.00
24230;BME280;12362;50.004;8.006;2023-06-24T00:13:39;101394.22;;;16.87;100.00
24230;BME280;12362;50.004;8.006;2023-06-24T00:16:05;101391.78;;;16.84;100.00
24230;BME280;12362;50.004;8.006;2023-06-24T00:18:33;101396.53;;;16.77;100.00
24230;BME280;12362;50.004;8.006;2023-06-24T00:20:58;101399.44;;;16.73;100.00
24230;BME280;12362;50.004;8.006;2023-06-24T00:23:24;101400.41;;;16.56;100.00
24230;BME280;12362;50.004;8.006;2023-06-24T00:25:54;101405.91;;;16.52;100.00
24230;BME280;12362;50.004;8.006;2023-06-24T00:28:23;101405.16;;;16.35;100.00
24230;BME280;12362;50.004;8.006;2023-06-24T00:30:49;101402.84;;;16.29;100.00
24230;BME280;12362;50.004;8.006;2023-06-24T00:33:15;101402.19;;;16.40;100.00
24230;BME280;12362;50.004;8.006;2023-06-24T00:35:41;101393.63;;;16.52;100.00
24230;BME280;12362;50.004;8.006;2023-06-24T00:38:07;101393.88;;;16.63;100.00
24230;BME280;12362;50.004;8.006;2023-06-24T00:40:33;101396.66;;;16.31;100.00
24230;BME280;12362;50.004;8.006;2023-06-24T00:42:59;101398.72;;;16.25;100.00
24230;BME280;12362;50.004;8.006;2023-06-24T00:45:27;101398.63;;;16.26;100.00
24230;BME280;12362;50.004;8.006;2023-06-24T00:47:53;101395.59;;;16.18;100.00
24230;BME280;12362;50.004;8.006;2023-06-24T00:50:21;101397.38;;;15.87;100.00
24230;BME280;12362;50.004;8.006;2023-06-24T00:52:47;101406.16;;;15.86;100.00
24230;BME280;12362;50.004;8.006;2023-06-24T00:55:15;101401.81;;;15.69;100.00
24230;BME280;12362;50.004;8.006;2023-06-24T00:57:42;101409.25;;;15.61;100.00
24230;BME280;12362;50.004;8.006;2023-06-24T01:00:09;101410.59;;;15.68;100.00
24230;BME280;12362;50.004;8.006;2023-06-24T01:02:38;101415.44;;;15.76;100.00
24230;BME280;12362;50.004;8.006;2023-06-24T01:05:05;101415.28;;;15.79;100.00
24230;BME280;12362;50.004;8.006;2023-06-24T01:07:33;101409.84;;;15.82;100.00
24230;BME280;12362;50.004;8.006;2023-06-24T01:10:00;101410.38;;;15.88;100.00
24230;BME280;12362;50.004;8.006;2023-06-24T01:12:26;101413.75;;;15.90;100.00
24230;BME280;12362;50.004;8.006;2023-06-24T01:14:51;101414.91;;;15.69;100.00
24230;BME280;12362;50.004;8.006;2023-06-24T01:17:24;101412.75;;;15.45;100.00
24230;BME280;12362;50.004;8.006;2023-06-24T01:25:56;101407.69;;;15.25;100.00
24230;BME280;12362;50.004;8.006;2023-06-24T01:28:40;101406.72;;;15.28;100.00
24230;BME280;12362;50.004;8.006;2023-06-24T01:31:23;101424.31;;;15.07;100.00
24230;BME280;12362;50.004;8.006;2023-06-24T01:34:10;101423.94;;;15.15;100.00
24230;BME280;12362;50.004;8.006;2023-06-24T01:36:40;101419.56;;;15.32;100.00
24230;BME280;12362;50.004;8.006;2023-06-24T01:39:12;101424.13;;;15.10;100.00
24230;BME280;12362;50.004;8.006;2023-06-24T01:41:46;101412.31;;;15.03;100.00
24230;BME280;12362;50.004;8.006;2023-06-24T01:44:14;101422.63;;;15.06;100.00
24230;BME280;12362;50.004;8.006;2023-06-24T01:46:44;101423.94;;;14.98;100.00
24230;BME280;12362;50.004;8.006;2023-06-24T01:49:13;101427.78;;;14.91;100.00
24230;BME280;12362;50.004;8.006;2023-06-24T01:51:42;101434.53;;;14.78;100.00
24230;BME280;12362;50.004;8.006;2023-06-24T01:54:15;101434.00;;;14.71;100.00
24230;BME280;12362;50.004;8.006;2023-06-24T01:56:45;101429.31;;;14.78;100.00
24230;BME280;12362;50.004;8.006;2023-06-24T01:59:14;101430.28;;;14.75;100.00
24230;BME280;12362;50.004;8.006;2023-06-24T02:01:41;101424.09;;;14.78;100.00
24230;BME280;12362;50.004;8.006;2023-06-24T02:04:09;101439.00;;;14.76;100.00
24230;BME280;12362;50.004;8.006;2023-06-24T02:06:36;101436.66;;;14.70;100.00
24230;BME280;12362;50.004;8.006;2023-06-24T02:09:04;101446.28;;;14.69;100.00
24230;BME280;12362;50.004;8.006;2023-06-24T02:11:32;101432.22;;;14.72;100.00
24230;BME280;12362;50.004;8.006;2023-06-24T02:13:59;101438.03;;;14.60;100.00
24230;BME280;12362;50.004;8.006;2023-06-24T02:16:27;101432.94;;;14.57;100.00
24230;BME280;12362;50.004;8.006;2023-06-24T02:18:54;101436.03;;;14.48;100.00
24230;BME280;12362;50.004;8.006;2023-06-24T02:21:21;101434.31;;;14.47;100.00
24230;BME280;12362;50.004;8.006;2023-06-24T02:23:48;101432.72;;;14.45;100.00
24230;BME280;12362;50.004;8.006;2023-06-24T02:26:15;101435.78;;;14.36;100.00
24230;BME280;12362;50.004;8.006;2023-06-24T02:28:43;101444.06;;;14.27;100.00
24230;BME280;12362;50.004;8.006;2023-06-24T02:31:10;101442.34;;;14.26;100.00
24230;BME280;12362;50.004;8.006;2023-06-24T02:33:37;101438.75;;;14.28;100.00
24230;BME280;12362;50.004;8.006;2023-06-24T02:36:03;101431.38;;;14.36;100.00
24230;BME280;12362;50.004;8.006;2023-06-24T02:38:29;101430.94;;;14.45;100.00
24230;BME280;12362;50.004;8.006;2023-06-24T02:40:54;101430.94;;;14.45;100.00
24230;BME280;12362;50.004;8.006;2023-06-24T02:43:20;101427.25;;;14.32;100.00
24230;BME280;12362;50.004;8.006;2023-06-24T02:45:47;101428.22;;;14.30;100.00
24230;BME280;12362;50.004;8.006;2023-06-24T02:48:13;101423.97;;;14.27;100.00
24230;BME280;12362;50.004;8.006;2023-06-24T02:50:39;101416.00;;;14.30;100.00
24230;BME280;12362;50.004;8.006;2023-06-24T02:53:10;101420.88;;;14.38;100.00
24230;BME280;12362;50.004;8.006;2023-06-24T02:55:37;101427.78;;;14.39;100.00
24230;BME280;12362;50.004;8.006;2023-06-24T02:58:04;101422.94;;;14.31;100.00
24230;BME280;12362;50.004;8.006;2023-06-24T03:00:34;101418.91;;;14.24;100.00
24230;BME280;12362;50.004;8.006;2023-06-24T03:03:08;101428.56;;;14.22;100.00
24230;BME280;12362;50.004;8.006;2023-06-24T03:05:38;101429.19;;;14.09;100.00
24230;BME280;12362;50.004;8.006;2023-06-24T03:08:04;101427.56;;;14.06;100.00
24230;BME280;12362;50.004;8.006;2023-06-24T03:10:31;101439.94;;;14.03;100.00
24230;BME280;12362;50.004;8.006;2023-06-24T03:12:57;101437.47;;;14.00;100.00
24230;BME280;12362;50.004;8.006;2023-06-24T03:15:30;101437.59;;;13.97;100.00
24230;BME280;12362;50.004;8.006;2023-06-24T03:17:57;101435.75;;;13.99;100.00
24230;BME280;12362;50.004;8.006;2023-06-24T03:20:22;101441.06;;;13.97;100.00
24230;BME280;12362;50.004;8.006;2023-06-24T03:22:49;101442.47;;;14.04;100.00
24230;BME280;12362;50.004;8.006;2023-06-24T03:25:16;101439.72;;;14.07;100.00
24230;BME280;12362;50.004;8.006;2023-06-24T03:27:41;101438.81;;;14.08;100.00
24230;BME280;12362;50.004;8.006;2023-06-24T03:30:10;101450.28;;;14.04;100.00
24230;BME280;12362;50.004;8.006;2023-06-24T03:32:36;101453.03;;;14.01;100.00
24230;BME280;12362;50.004;8.006;2023-06-24T03:35:03;101451.28;;;14.02;100.00
24230;BME280;12362;50.004;8.006;2023-06-24T03:37:29;101458.00;;;14.07;100.00
24230;BME280;12362;50.004;8.006;2023-06-24T03:39:56;101455.59;;;14.21;100.00
24230;BME280;12362;50.004;8.006;2023-06-24T03:42:21;101446.84;;;14.22;100.00
24230;BME280;12362;50.004;8.006;2023-06-24T03:44:47;101446.63;;;14.08;100.00
24230;BME280;12362;50.004;8.006;2023-06-24T03:47:12;101447.78;;;14.03;100.00
24230;BME280;12362;50.004;8.006;2023-06-24T03:49:38;101452.34;;;13.98;100.00
24230;BME280;12362;50.004;8.006;2023-06-24T03:52:04;101454.31;;;14.11;100.00
24230;BME280;12362;50.004;8.006;2023-06-24T03:54:34;101457.72;;;14.13;100.00
24230;BME280;12362;50.004;8.006;2023-06-24T03:56:59;101454.53;;;14.07;100.00
24230;BME280;12362;50.004;8.006;2023-06-24T03:59:25;101464.31;;;14.22;100.00
24230;BME280;12362;50.004;8.006;2023-06-24T04:01:52;101460.34;;;14.32;100.00
24230;BME280;12362;50.004;8.006;2023-06-24T04:04:19;101463.72;;;14.34;100.00
24230;BME280;12362;50.004;8.006;2023-06-24T04:06:45;101467.25;;;14.33;100.00
24230;BME280;12362;50.004;8.006;2023-06-24T04:09:12;101471.28;;;14.40;100.00
24230;BME280;12362;50.004;8.006;2023-06-24T04:11:38;101469.72;;;14.54;100.00
24230;BME280;12362;50.004;8.006;2023-06-24T04:14:03;101470.66;;;14.70;100.00
24230;BME280;12362;50.004;8.006;2023-06-24T04:16:32;101466.69;;;14.80;100.00
24230;BME280;12362;50.004;8.006;2023-06-24T04:19:00;101461.00;;;14.89;100.00
24230;BME280;12362;50.004;8.006;2023-06-24T04:21:27;101465.00;;;14.96;100.00
24230;BME280;12362;50.004;8.006;2023-06-24T04:23:52;101461.78;;;15.08;100.00
24230;BME280;12362;50.004;8.006;2023-06-24T04:26:18;101461.41;;;15.15;100.00
24230;BME280;12362;50.004;8.006;2023-06-24T04:28:44;101464.47;;;15.23;100.00
24230;BME280;12362;50.004;8.006;2023-06-24T04:31:10;101461.72;;;15.26;100.00
24230;BME280;12362;50.004;8.006;2023-06-24T04:33:37;101465.31;;;15.41;100.00
24230;BME280;12362;50.004;8.006;2023-06-24T04:36:03;101467.00;;;15.58;100.00
24230;BME280;12362;50.004;8.006;2023-06-24T04:38:28;101469.66;;;15.74;100.00
24230;BME280;12362;50.004;8.006;2023-06-24T04:40:54;101458.97;;;15.94;100.00
24230;BME280;12362;50.004;8.006;2023-06-24T04:43:19;101457.72;;;16.16;100.00
24230;BME280;12362;50.004;8.006;2023-06-24T04:45:45;101458.28;;;16.38;100.00
24230;BME280;12362;50.004;8.006;2023-06-24T04:48:10;101463.59;;;16.52;100.00
24230;BME280;12362;50.004;8.006;2023-06-24T04:50:35;101470.00;;;16.62;100.00
24230;BME280;12362;50.004;8.006;2023-06-24T04:53:01;101464.25;;;16.71;100.00
24230;BME280;12362;50.004;8.006;2023-06-24T04:55:29;101470.22;;;16.88;100.00
24230;BME280;12362;50.004;8.006;2023-06-24T04:57:57;101468.84;;;16.97;100.00
24230;BME280;12362;50.004;8.006;2023-06-24T05:00:23;101462.97;;;17.07;100.00
24230;BME280;12362;50.004;8.006;2023-06-24T05:02:50;101466.75;;;17.17;100.00
24230;BME280;12362;50.004;8.006;2023-06-24T05:05:15;101460.13;;;17.26;100.00
24230;BME280;12362;50.004;8.006;2023-06-24T05:07:41;101461.88;;;17.40;100.00
24230;BME280;12362;50.004;8.006;2023-06-24T05:10:06;101462.81;;;17.53;100.00
24230;BME280;12362;50.004;8.006;2023-06-24T05:12:32;101466.94;;;17.57;100.00
24230;BME280;12362;50.004;8.006;2023-06-24T05:14:58;101471.09;;;17.61;100.00
24230;BME280;12362;50.004;8.006;2023-06-24T05:17:23;101473.75;;;17.75;100.00
24230;BME280;12362;50.004;8.006;2023-06-24T05:19:49;101468.84;;;17.69;100.00
24230;BME280;12362;50.004;8.006;2023-06-24T05:22:14;101470.72;;;17.81;100.00
24230;BME280;12362;50.004;8.006;2023-06-24T05:24:40;101468.56;;;17.88;100.00
24230;BME280;12362;50.004;8.006;2023-06-24T05:27:06;101467.22;;;17.95;100.00
24230;BME280;12362;50.004;8.006;2023-06-24T05:29:33;101466.94;;;18.13;100.00
24230;BME280;12362;50.004;8.006;2023-06-24T05:31:59;101464.31;;;18.27;100.00
24230;BME280;12362;50.004;8.006;2023-06-24T05:34:26;101467.03;;;18.39;100.00
24230;BME280;12362;50.004;8.006;2023-06-24T05:36:52;101461.47;;;18.44;100.00
24230;BME280;12362;50.004;8.006;2023-06-24T05:39:17;101464.00;;;18.45;100.00
24230;BME280;12362;50.004;8.006;2023-06-24T05:41:43;101467.25;;;18.49;100.00
24230;BME280;12362;50.004;8.006;2023-06-24T05:44:09;101467.03;;;18.66;100.00
24230;BME280;12362;50.004;8.006;2023-06-24T05:46:37;101460.97;;;18.78;100.00
24230;BME280;12362;50.004;8.006;2023-06-24T05:49:03;101460.91;;;18.92;100.00
24230;BME280;12362;50.004;8.006;2023-06-24T05:51:28;101469.34;;;18.97;100.00
24230;BME280;12362;50.004;8.006;2023-06-24T05:53:54;101471.84;;;19.12;100.00
24230;BME280;12362;50.004;8.006;2023-06-24T05:56:20;101469.13;;;19.26;100.00
24230;BME280;12362;50.004;8.006;2023-06-24T05:58:47;101468.09;;;19.41;100.00
24230;BME280;12362;50.004;8.006;2023-06-24T06:01:12;101453.66;;;19.46;100.00
24230;BME280;12362;50.004;8.006;2023-06-24T06:03:38;101460.09;;;19.55;100.00
24230;BME280;12362;50.004;8.006;2023-06-24T06:06:03;101457.34;;;19.44;100.00
24230;BME280;12362;50.004;8.006;2023-06-24T06:08:29;101456.81;;;19.76;100.00
24230;BME280;12362;50.004;8.006;2023-06-24T06:10:55;101462.59;;;19.94;100.00
24230;BME280;12362;50.004;8.006;2023-06-24T06:13:20;101463.97;;;20.12;100.00
24230;BME280;12362;50.004;8.006;2023-06-24T06:15:45;101456.56;;;20.52;100.00
24230;BME280;12362;50.004;8.006;2023-06-24T06:18:11;101451.75;;;20.93;100.00
24230;BME280;12362;50.004;8.006;2023-06-24T06:20:37;101453.81;;;21.35;100.00
24230;BME280;12362;50.004;8.006;2023-06-24T06:23:03;101443.81;;;21.84;100.00
24230;BME280;12362;50.004;8.006;2023-06-24T06:25:28;101438.47;;;22.16;100.00
24230;BME280;12362;50.004;8.006;2023-06-24T06:27:54;101439.75;;;22.55;100.00
24230;BME280;12362;50.004;8.006;2023-06-24T06:30:22;101439.25;;;22.61;100.00
24230;BME280;12362;50.004;8.006;2023-06-24T06:32:48;101436.94;;;22.67;100.00
24230;BME280;12362;50.004;8.006;2023-06-24T06:35:13;101426.34;;;23.19;100.00
24230;BME280;12362;50.004;8.006;2023-06-24T06:37:39;101425.78;;;23.36;100.00
24230;BME280;12362;50.004;8.006;2023-06-24T06:40:05;101429.72;;;23.21;100.00
24230;BME280;12362;50.004;8.006;2023-06-24T06:42:30;101432.44;;;23.10;100.00
24230;BME280;12362;50.004;8.006;2023-06-24T06:44:56;101421.69;;;23.32;100.00
24230;BME280;12362;50.004;8.006;2023-06-24T06:47:22;101422.09;;;23.78;100.00
24230;BME280;12362;50.004;8.006;2023-06-24T06:49:48;101415.78;;;23.99;100.00
24230;BME280;12362;50.004;8.006;2023-06-24T06:52:13;101422.31;;;23.65;100.00
24230;BME280;12362;50.004;8.006;2023-06-24T06:54:39;101421.13;;;23.79;100.00
24230;BME280;12362;50.004;8.006;2023-06-24T06:57:05;101414.75;;;24.39;100.00
24230;BME280;12362;50.004;8.006;2023-06-24T06:59:31;101417.06;;;24.91;98.58
24230;BME280;12362;50.004;8.006;2023-06-24T07:01:57;101411.94;;;25.45;96.09
24230;BME280;12362;50.004;8.006;2023-06-24T07:04:22;101405.19;;;25.96;89.47
24230;BME280;12362;50.004;8.006;2023-06-24T07:06:48;101404.09;;;26.16;87.44
24230;BME280;12362;50.004;8.006;2023-06-24T07:09:14;101399.19;;;26.11;83.29
24230;BME280;12362;50.004;8.006;2023-06-24T07:11:41;101413.81;;;26.07;80.17
24230;BME280;12362;50.004;8.006;2023-06-24T07:14:06;101413.91;;;25.43;86.37
24230;BME280;12362;50.004;8.006;2023-06-24T07:16:32;101406.78;;;25.89;84.93
24230;BME280;12362;50.004;8.006;2023-06-24T07:18:57;101403.94;;;26.17;78.38
24230;BME280;12362;50.004;8.006;2023-06-24T07:21:23;101398.38;;;26.55;78.08
24230;BME280;12362;50.004;8.006;2023-06-24T07:23:48;101395.63;;;26.47;77.39
24230;BME280;12362;50.004;8.006;2023-06-24T07:26:14;101395.84;;;26.71;71.85
24230;BME280;12362;50.004;8.006;2023-06-24T07:28:39;101398.06;;;27.10;67.61
24230;BME280;12362;50.004;8.006;2023-06-24T07:31:05;101400.38;;;26.71;74.64
24230;BME280;12362;50.004;8.006;2023-06-24T07:33:30;101389.22;;;27.10;71.57
24230;BME280;12362;50.004;8.006;2023-06-24T07:35:56;101389.47;;;27.24;69.73
24230;BME280;12362;50.004;8.006;2023-06-24T07:38:22;101389.75;;;27.39;65.55
24230;BME280;12362;50.004;8.006;2023-06-24T07:40:48;101400.31;;;27.73;62.90
24230;BME280;12362;50.004;8.006;2023-06-24T07:43:13;101388.22;;;28.36;60.78
24230;BME280;12362;50.004;8.006;2023-06-24T07:45:39;101391.91;;;28.35;60.90
24230;BME280;12362;50.004;8.006;2023-06-24T07:48:05;101383.28;;;28.16;62.06
24230;BME280;12362;50.004;8.006;2023-06-24T07:50:32;101397.22;;;28.27;60.18
24230;BME280;12362;50.004;8.006;2023-06-24T07:52:58;101389.03;;;28.29;62.63
24230;BME280;12362;50.004;8.006;2023-06-24T07:55:23;101384.75;;;28.60;56.44
24230;BME280;12362;50.004;8.006;2023-06-24T07:57:49;101380.59;;;29.13;55.51
24230;BME280;12362;50.004;8.006;2023-06-24T08:00:15;101383.09;;;28.82;54.33
24230;BME280;12362;50.004;8.006;2023-06-24T08:02:42;101385.75;;;29.14;53.04
24230;BME280;12362;50.004;8.006;2023-06-24T08:05:08;101385.53;;;29.56;52.96
24230;BME280;12362;50.004;8.006;2023-06-24T08:07:35;101384.81;;;29.69;54.91
24230;BME280;12362;50.004;8.006;2023-06-24T08:10:01;101381.38;;;29.99;52.96
24230;BME280;12362;50.004;8.006;2023-06-24T08:12:26;101376.84;;;30.08;52.52
24230;BME280;12362;50.004;8.006;2023-06-24T08:14:52;101385.81;;;30.15;55.33
24230;BME280;12362;50.004;8.006;2023-06-24T08:17:17;101375.72;;;30.25;52.16
24230;BME280;12362;50.004;8.006;2023-06-24T08:19:43;101364.31;;;30.53;53.22
24230;BME280;12362;50.004;8.006;2023-06-24T08:22:08;101371.69;;;30.96;53.74
24230;BME280;12362;50.004;8.006;2023-06-24T08:24:34;101361.66;;;31.12;47.10
24230;BME280;12362;50.004;8.006;2023-06-24T08:26:59;101364.91;;;30.85;47.06
24230;BME280;12362;50.004;8.006;2023-06-24T08:29:25;101368.69;;;30.91;49.27
24230;BME280;12362;50.004;8.006;2023-06-24T08:31:51;101362.69;;;31.40;48.00
24230;BME280;12362;50.004;8.006;2023-06-24T08:34:16;101357.59;;;31.31;47.56
24230;BME280;12362;50.004;8.006;2023-06-24T08:36:41;101365.03;;;30.69;48.73
24230;BME280;12362;50.004;8.006;2023-06-24T08:39:07;101356.59;;;30.95;50.12
24230;BME280;12362;50.004;8.006;2023-06-24T08:41:33;101351.28;;;31.24;46.65
24230;BME280;12362;50.004;8.006;2023-06-24T08:43:58;101359.13;;;31.11;44.99
24230;BME280;12362;50.004;8.006;2023-06-24T08:46:25;101361.78;;;30.74;46.96
24230;BME280;12362;50.004;8.006;2023-06-24T08:49:03;101361.16;;;30.50;46.69
24230;BME280;12362;50.004;8.006;2023-06-24T08:51:35;101364.63;;;30.58;46.96
24230;BME280;12362;50.004;8.006;2023-06-24T08:54:05;101364.44;;;30.29;47.34
24230;BME280;12362;50.004;8.006;2023-06-24T08:56:32;101359.47;;;30.49;50.33
24230;BME280;12362;50.004;8.006;2023-06-24T08:58:58;101370.28;;;30.02;48.11
24230;BME280;12362;50.004;8.006;2023-06-24T09:01:25;101364.34;;;29.84;47.76
24230;BME280;12362;50.004;8.006;2023-06-24T09:03:51;101365.47;;;29.98;47.72
24230;BME280;12362;50.004;8.006;2023-06-24T09:06:17;101353.59;;;31.12;48.43
24230;BME280;12362;50.004;8.006;2023-06-24T09:08:52;101350.38;;;31.31;45.07
24230;BME280;12362;50.004;8.006;2023-06-24T09:11:22;101358.38;;;30.35;47.86
24230;BME280;12362;50.004;8.006;2023-06-24T09:13:48;101354.94;;;30.94;45.65
24230;BME280;12362;50.004;8.006;2023-06-24T09:16:19;101347.38;;;32.13;44.76
24230;BME280;12362;50.004;8.006;2023-06-24T09:18:48;101329.72;;;31.46;45.70
24230;BME280;12362;50.004;8.006;2023-06-24T09:21:24;101332.78;;;31.29;43.78
24230;BME280;12362;50.004;8.006;2023-06-24T09:23:57;101334.28;;;32.24;44.76
24230;BME280;12362;50.004;8.006;2023-06-24T09:26:24;101328.47;;;31.92;45.19
24230;BME280;12362;50.004;8.006;2023-06-24T09:28:50;101322.41;;;32.40;42.26
24230;BME280;12362;50.004;8.006;2023-06-24T09:31:17;101315.06;;;32.96;39.68
24230;BME280;12362;50.004;8.006;2023-06-24T09:33:43;101310.31;;;33.26;42.43
24230;BME280;12362;50.004;8.006;2023-06-24T09:36:13;101312.00;;;33.67;43.24
24230;BME280;12362;50.004;8.006;2023-06-24T09:38:44;101297.13;;;34.56;38.60
24230;BME280;12362;50.004;8.006;2023-06-24T09:41:10;101312.09;;;33.12;40.26
24230;BME280;12362;50.004;8.006;2023-06-24T09:43:37;101306.94;;;32.90;43.19
24230;BME280;12362;50.004;8.006;2023-06-24T09:46:06;101305.53;;;33.21;41.12
24230;BME280;12362;50.004;8.006;2023-06-24T09:48:35;101298.69;;;33.19;40.85
24230;BME280;12362;50.004;8.006;2023-06-24T09:51:02;101290.66;;;33.25;42.01
24230;BME280;12362;50.004;8.006;2023-06-24T09:53:35;101293.91;;;33.14;41.97
24230;BME280;12362;50.004;8.006;2023-06-24T09:56:03;101286.28;;;32.69;39.68
24230;BME280;12362;50.004;8.006;2023-06-24T09:58:35;101287.13;;;32.70;38.70
24230;BME280;12362;50.004;8.006;2023-06-24T10:01:06;101282.38;;;33.73;36.44
24230;BME280;12362;50.004;8.006;2023-06-24T10:03:33;101271.69;;;34.06;36.14
24230;BME280;12362;50.004;8.006;2023-06-24T10:06:04;101268.25;;;34.76;37.55
24230;BME280;12362;50.004;8.006;2023-06-24T10:08:31;101264.75;;;34.63;36.44
24230;BME280;12362;50.004;8.006;2023-06-24T10:10:57;101278.44;;;33.76;35.73
24230;BME280;12362;50.004;8.006;2023-06-24T10:13:22;101267.06;;;33.40;33.64
24230;BME280;12362;50.004;8.006;2023-06-24T10:15:49;101269.06;;;33.19;33.26
24230;BME280;12362;50.004;8.006;2023-06-24T10:18:34;101251.59;;;34.15;33.44
24230;BME280;12362;50.004;8.006;2023-06-24T10:21:01;101254.09;;;34.36;36.53
24230;BME280;12362;50.004;8.006;2023-06-24T10:23:39;101248.94;;;34.47;30.91
24230;BME280;12362;50.004;8.006;2023-06-24T10:26:10;101244.34;;;34.47;30.40
24230;BME280;12362;50.004;8.006;2023-06-24T10:34:27;101245.81;;;33.58;35.09
24230;BME280;12362;50.004;8.006;2023-06-24T10:36:56;101251.69;;;33.28;35.41
24230;BME280;12362;50.004;8.006;2023-06-24T10:47:34;101220.69;;;34.43;33.60
24230;BME280;12362;50.004;8.006;2023-06-24T10:50:00;101221.94;;;34.40;34.31
24230;BME280;12362;50.004;8.006;2023-06-24T10:52:26;101225.91;;;34.64;35.42
24230;BME280;12362;50.004;8.006;2023-06-24T10:54:53;101212.78;;;35.50;30.80
24230;BME280;12362;50.004;8.006;2023-06-24T10:57:26;101208.56;;;35.04;30.92
24230;BME280;12362;50.004;8.006;2023-06-24T10:59:55;101205.50;;;35.57;30.39
24230;BME280;12362;50.004;8.006;2023-06-24T11:02:22;101203.75;;;35.25;35.16
24230;BME280;12362;50.004;8.006;2023-06-24T11:04:48;101204.19;;;35.16;30.92
24230;BME280;12362;50.004;8.006;2023-06-24T11:07:17;101204.84;;;34.98;31.76
24230;BME280;12362;50.004;8.006;2023-06-24T11:12:16;101196.31;;;35.01;31.53
24230;BME280;12362;50.004;8.006;2023-06-24T11:14:42;101185.13;;;35.54;29.86
24230;BME280;12362;50.004;8.006;2023-06-24T11:17:07;101183.22;;;35.11;31.08
24230;BME280;12362;50.004;8.006;2023-06-24T11:19:34;101177.75;;;35.68;30.50
24230;BME280;12362;50.004;8.006;2023-06-24T11:22:01;101187.91;;;34.33;31.55
24230;BME280;12362;50.004;8.006;2023-06-24T11:24:28;101187.91;;;34.27;30.66
24230;BME280;12362;50.004;8.006;2023-06-24T11:26:54;101173.97;;;34.04;32.60
24230;BME280;12362;50.004;8.006;2023-06-24T11:29:20;101178.31;;;33.92;32.59
24230;BME280;12362;50.004;8.006;2023-06-24T11:31:46;101177.50;;;34.49;32.02
24230;BME280;12362;50.004;8.006;2023-06-24T11:34:12;101167.09;;;34.72;31.43
24230;BME280;12362;50.004;8.006;2023-06-24T11:36:37;101172.09;;;34.49;31.98
24230;BME280;12362;50.004;8.006;2023-06-24T11:39:03;101164.63;;;34.71;31.53
24230;BME280;12362;50.004;8.006;2023-06-24T11:41:29;101162.16;;;34.50;31.18
24230;BME280;12362;50.004;8.006;2023-06-24T11:43:57;101156.03;;;35.00;30.23
24230;BME280;12362;50.004;8.006;2023-06-24T11:46:27;101152.16;;;34.76;30.46
24230;BME280;12362;50.004;8.006;2023-06-24T11:49:04;101159.78;;;35.05;30.07
24230;BME280;12362;50.004;8.006;2023-06-24T11:51:30;101150.75;;;34.61;31.15
24230;BME280;12362;50.004;8.006;2023-06-24T11:53:59;101148.69;;;34.11;33.38
24230;BME280;12362;50.004;8.006;2023-06-24T11:56:44;101146.97;;;34.75;31.00
24230;BME280;12362;50.004;8.006;2023-06-24T12:01:52;101149.44;;;33.60;31.59
24230;BME280;12362;50.004;8.006;2023-06-24T12:04:19;101144.59;;;33.36;32.94
24230;BME280;12362;50.004;8.006;2023-06-24T12:06:44;101134.97;;;33.87;31.55
24230;BME280;12362;50.004;8.006;2023-06-24T12:09:10;101136.00;;;34.38;31.02
24230;BME280;12362;50.004;8.006;2023-06-24T12:11:36;101131.19;;;34.52;32.76
24230;BME280;12362;50.004;8.006;2023-06-24T12:14:02;101114.22;;;35.52;31.67
24230;BME280;12362;50.004;8.006;2023-06-24T12:16:29;101111.94;;;35.80;30.17
24230;BME280;12362;50.004;8.006;2023-06-24T12:18:54;101121.94;;;36.71;31.16
24230;BME280;12362;50.004;8.006;2023-06-24T12:21:20;101111.34;;;36.03;29.92
24230;BME280;12362;50.004;8.006;2023-06-24T12:23:46;101112.75;;;35.81;30.51
24230;BME280;12362;50.004;8.006;2023-06-24T12:26:12;101125.38;;;34.68;31.99
24230;BME280;12362;50.004;8.006;2023-06-24T12:28:38;101114.38;;;34.57;32.98
24230;BME280;12362;50.004;8.006;2023-06-24T12:31:03;101121.47;;;34.06;33.56
24230;BME280;12362;50.004;8.006;2023-06-24T12:33:32;101125.56;;;33.57;33.51
24230;BME280;12362;50.004;8.006;2023-06-24T12:35:58;101108.59;;;34.02;35.36
24230;BME280;12362;50.004;8.006;2023-06-24T12:38:24;101106.47;;;33.52;34.64
24230;BME280;12362;50.004;8.006;2023-06-24T12:40:49;101113.59;;;32.66;34.98
24230;BME280;12362;50.004;8.006;2023-06-24T12:43:18;101117.78;;;32.14;35.57
24230;BME280;12362;50.004;8.006;2023-06-24T12:45:44;101117.19;;;32.18;35.00
24230;BME280;12362;50.004;8.006;2023-06-24T12:48:10;101110.41;;;32.56;35.84
24230;BME280;12362;50.004;8.006;2023-06-24T12:50:36;101108.59;;;32.63;38.23
24230;BME280;12362;50.004;8.006;2023-06-24T12:53:02;101094.91;;;32.98;35.96
24230;BME280;12362;50.004;8.006;2023-06-24T12:55:28;101086.16;;;33.56;34.10
24230;BME280;12362;50.004;8.006;2023-06-24T12:57:54;101086.88;;;34.10;33.31
24230;BME280;12362;50.004;8.006;2023-06-24T13:00:21;101077.91;;;34.29;33.13
24230;BME280;12362;50.004;8.006;2023-06-24T13:02:48;101073.72;;;35.09;32.95
24230;BME280;12362;50.004;8.006;2023-06-24T13:05:14;101075.06;;;36.10;30.80
24230;BME280;12362;50.004;8.006;2023-06-24T13:07:40;101065.31;;;35.23;31.11
24230;BME280;12362;50.004;8.006;2023-06-24T13:10:06;101075.13;;;35.48;31.35